createdAt,value
2016-06-07T00:00:18.413Z,52.61
2016-06-07T00:01:18.416Z,52.32
2016-06-07T00:02:18.434Z,52.32
2016-06-07T00:03:18.437Z,52.61
2016-06-07T00:04:18.438Z,52.51
2016-06-07T00:05:18.442Z,52.54
2016-06-07T00:06:18.601Z,52.32
2016-06-07T00:07:18.463Z,52.25
2016-06-07T00:08:18.465Z,52.22
2016-06-07T00:09:18.484Z,52.54
2016-06-07T00:10:18.487Z,52.34
2016-06-07T00:11:18.333Z,52.03
2016-06-07T00:12:18.493Z,52.22
2016-06-07T00:13:18.510Z,52.32
2016-06-07T00:14:18.512Z,52.54
2016-06-07T00:15:18.515Z,52.03
2016-06-07T00:16:18.534Z,52.32
2016-06-07T00:17:18.537Z,52.54
2016-06-07T00:18:18.539Z,52.12
2016-06-07T00:19:18.401Z,52.51
2016-06-07T00:20:18.732Z,52.51
2016-06-07T00:21:18.407Z,52.42
2016-06-07T00:22:18.582Z,52.42
2016-06-07T00:23:18.584Z,52.51
2016-06-07T00:24:18.586Z,52.51
2016-06-07T00:25:18.589Z,52.51
2016-06-07T00:26:18.608Z,52.51
2016-06-07T00:27:18.610Z,52.54
2016-06-07T00:28:18.458Z,52.51
2016-06-07T00:29:18.632Z,52.61
2016-06-07T00:30:18.634Z,52.61
2016-06-07T00:31:18.699Z,52.44
2016-06-07T00:32:18.655Z,52.42
2016-06-07T00:33:18.658Z,52.51
2016-06-07T00:34:18.661Z,52.22
2016-06-07T00:35:18.679Z,52.71
2016-06-07T00:36:19.260Z,52.12
2016-06-07T00:37:18.527Z,52.32
2016-06-07T00:38:18.688Z,52.42
2016-06-07T00:39:18.705Z,51.64
2016-06-07T00:40:18.707Z,52.15
2016-06-07T00:41:18.726Z,52.32
2016-06-07T00:42:18.729Z,52.12
2016-06-07T00:43:18.732Z,52.03
2016-06-07T00:44:18.734Z,52.44
2016-06-07T00:45:18.753Z,51.86
2016-06-07T00:46:18.756Z,52.03
2016-06-07T00:47:18.868Z,52.15
2016-06-07T00:48:18.761Z,51.64
2016-06-07T00:49:18.779Z,51.84
2016-06-07T00:50:18.781Z,51.74
2016-06-07T00:51:19.472Z,52.03
2016-06-07T00:52:18.803Z,51.86
2016-06-07T00:53:18.806Z,51.93
2016-06-07T00:54:18.808Z,51.74
2016-06-07T00:55:18.826Z,51.74
2016-06-07T00:56:18.829Z,51.76
2016-06-07T00:57:18.832Z,51.74
2016-06-07T00:58:18.850Z,51.93
2016-06-07T00:59:18.853Z,51.74
2016-06-07T01:00:18.856Z,51.76
2016-06-07T01:01:18.874Z,51.84
2016-06-07T01:02:18.877Z,51.86
2016-06-07T01:03:18.880Z,51.96
2016-06-07T01:04:18.897Z,51.74
2016-06-07T01:05:18.900Z,51.76
2016-06-07T01:06:18.918Z,51.93
2016-06-07T01:07:18.921Z,51.96
2016-06-07T01:08:18.924Z,51.64
2016-06-07T01:09:18.943Z,51.84
2016-06-07T01:10:18.946Z,51.96
2016-06-07T01:11:18.948Z,51.74
2016-06-07T01:12:18.965Z,51.93
2016-06-07T01:13:18.796Z,51.84
2016-06-07T01:14:18.971Z,51.93
2016-06-07T01:15:18.974Z,51.96
2016-06-07T01:16:18.976Z,51.74
2016-06-07T01:17:18.995Z,51.84
2016-06-07T01:18:18.998Z,51.84
2016-06-07T01:19:19.000Z,52.03
2016-06-07T01:20:19.003Z,52.03
2016-06-07T01:21:19.021Z,51.86
2016-06-07T01:22:19.024Z,51.74
2016-06-07T01:23:19.026Z,51.74
2016-06-07T01:24:19.045Z,51.64
2016-06-07T01:25:19.047Z,51.84
2016-06-07T01:26:19.051Z,51.84
2016-06-07T01:27:19.069Z,51.86
2016-06-07T01:28:19.072Z,51.74
2016-06-07T01:29:19.074Z,51.93
2016-06-07T01:30:19.092Z,51.76
2016-06-07T01:31:19.111Z,52.03
2016-06-07T01:32:19.161Z,51.93
2016-06-07T01:33:19.116Z,51.76
2016-06-07T01:34:19.213Z,51.74
2016-06-07T01:35:19.121Z,51.74
2016-06-07T01:36:19.828Z,52.03
2016-06-07T01:37:19.143Z,52.22
2016-06-07T01:38:19.146Z,51.84
2016-06-07T01:39:19.163Z,51.96
2016-06-07T01:40:19.166Z,51.93
2016-06-07T01:41:19.169Z,51.74
2016-06-07T01:42:19.172Z,51.45
2016-06-07T01:43:19.190Z,51.25
2016-06-07T01:44:19.192Z,51.47
2016-06-07T01:45:19.195Z,51.67
2016-06-07T01:46:19.213Z,51.47
2016-06-07T01:47:19.215Z,51.57
2016-06-07T01:48:19.222Z,51.28
2016-06-07T01:49:19.256Z,51.37
2016-06-07T01:50:19.273Z,51.18
2016-06-07T01:51:19.307Z,51.09
2016-06-07T01:52:19.308Z,51.18
2016-06-07T01:53:19.340Z,51.47
2016-06-07T01:54:19.348Z,51.57
2016-06-07T01:55:19.356Z,51.37
2016-06-07T01:56:19.380Z,51.47
2016-06-07T01:57:19.387Z,51.47
2016-06-07T01:58:19.395Z,51.45
2016-06-07T01:59:19.415Z,51.47
2016-06-07T02:00:19.419Z,51.37
2016-06-07T02:01:19.424Z,51.47
2016-06-07T02:02:19.445Z,51.09
2016-06-07T02:03:19.449Z,51.47
2016-06-07T02:04:19.453Z,51.57
2016-06-07T02:05:19.472Z,51.18
2016-06-07T02:06:19.319Z,51.47
2016-06-07T02:07:19.478Z,51.47
2016-06-07T02:08:19.498Z,51.37
2016-06-07T02:09:19.501Z,51.47
2016-06-07T02:10:19.504Z,51.09
2016-06-07T02:11:19.521Z,51.09
2016-06-07T02:12:19.525Z,51.09
2016-06-07T02:13:19.528Z,51.47
2016-06-07T02:14:19.547Z,51.67
2016-06-07T02:15:19.549Z,51.57
2016-06-07T02:16:19.552Z,51.47
2016-06-07T02:17:19.554Z,51.37
2016-06-07T02:18:19.574Z,51.09
2016-06-07T02:19:19.576Z,51.28
2016-06-07T02:20:19.594Z,51.47
2016-06-07T02:21:20.065Z,51.47
2016-06-07T02:22:19.599Z,51.47
2016-06-07T02:23:19.618Z,51.47
2016-06-07T02:24:19.621Z,51.37
2016-06-07T02:25:19.623Z,51.37
2016-06-07T02:26:19.626Z,51.09
2016-06-07T02:27:19.645Z,51.37
2016-06-07T02:28:19.647Z,51.57
2016-06-07T02:29:19.650Z,51.47
2016-06-07T02:30:19.652Z,51.28
2016-06-07T02:31:19.670Z,51.47
2016-06-07T02:32:19.673Z,51.47
2016-06-07T02:33:19.676Z,51.47
2016-06-07T02:34:19.695Z,51.45
2016-06-07T02:35:19.697Z,51.37
2016-06-07T02:36:19.715Z,51.09
2016-06-07T02:37:19.717Z,51.37
2016-06-07T02:38:19.736Z,51.09
2016-06-07T02:39:19.723Z,51.57
2016-06-07T02:40:19.742Z,51.35
2016-06-07T02:41:19.744Z,51.57
2016-06-07T02:42:19.747Z,51.47
2016-06-07T02:43:19.766Z,51.47
2016-06-07T02:44:19.768Z,51.35
2016-06-07T02:45:19.771Z,51.45
2016-06-07T02:46:19.774Z,51.54
2016-06-07T02:47:19.791Z,51.35
2016-06-07T02:48:19.638Z,51.47
2016-06-07T02:49:19.796Z,51.64
2016-06-07T02:50:19.816Z,51.67
2016-06-07T02:51:19.835Z,51.57
2016-06-07T02:52:19.836Z,51.47
2016-06-07T02:53:19.840Z,51.35
2016-06-07T02:54:19.842Z,51.35
2016-06-07T02:55:19.860Z,51.64
2016-06-07T02:56:19.863Z,51.54
2016-06-07T02:57:19.865Z,51.76
2016-06-07T02:58:19.868Z,51.64
2016-06-07T02:59:19.887Z,51.25
2016-06-07T03:00:19.890Z,51.74
2016-06-07T03:01:19.907Z,52.03
2016-06-07T03:02:19.910Z,51.84
2016-06-07T03:03:19.912Z,51.74
2016-06-07T03:04:19.915Z,51.93
2016-06-07T03:05:19.918Z,51.84
2016-06-07T03:06:20.967Z,51.84
2016-06-07T03:07:19.939Z,51.54
2016-06-07T03:08:19.958Z,51.93
2016-06-07T03:09:19.961Z,51.47
2016-06-07T03:10:19.963Z,52.25
2016-06-07T03:11:19.966Z,52.22
2016-06-07T03:12:19.968Z,51.93
2016-06-07T03:13:19.986Z,51.86
2016-06-07T03:14:19.989Z,51.45
2016-06-07T03:15:19.991Z,51.74
2016-06-07T03:16:20.010Z,52.03
2016-06-07T03:17:20.013Z,51.84
2016-06-07T03:18:20.032Z,52.22
2016-06-07T03:19:20.019Z,51.93
2016-06-07T03:20:20.037Z,51.93
2016-06-07T03:21:20.477Z,52.22
2016-06-07T03:22:20.074Z,51.84
2016-06-07T03:23:20.060Z,52.42
2016-06-07T03:24:20.063Z,52.22
2016-06-07T03:25:20.082Z,51.54
2016-06-07T03:26:20.085Z,52.03
2016-06-07T03:27:20.087Z,51.64
2016-06-07T03:28:20.105Z,51.54
2016-06-07T03:29:20.107Z,52.22
2016-06-07T03:30:20.110Z,52.22
2016-06-07T03:31:20.113Z,51.84
2016-06-07T03:32:20.132Z,51.84
2016-06-07T03:33:20.134Z,51.45
2016-06-07T03:34:20.137Z,52.22
2016-06-07T03:35:20.155Z,51.45
2016-06-07T03:36:20.158Z,51.74
2016-06-07T03:37:20.161Z,51.84
2016-06-07T03:38:20.163Z,52.12
2016-06-07T03:39:20.181Z,51.84
2016-06-07T03:40:20.184Z,52.12
2016-06-07T03:41:20.187Z,52.32
2016-06-07T03:42:20.205Z,51.93
2016-06-07T03:43:20.208Z,52.22
2016-06-07T03:44:20.211Z,52.12
2016-06-07T03:45:20.229Z,52.12
2016-06-07T03:46:20.232Z,52.12
2016-06-07T03:47:20.235Z,52.25
2016-06-07T03:48:20.252Z,52.03
2016-06-07T03:49:20.255Z,51.54
2016-06-07T03:50:20.258Z,52.32
2016-06-07T03:51:20.464Z,52.03
2016-06-07T03:52:20.498Z,52.12
2016-06-07T03:53:20.282Z,52.32
2016-06-07T03:54:20.285Z,51.74
2016-06-07T03:55:20.302Z,52.12
2016-06-07T03:56:20.305Z,52.12
2016-06-07T03:57:20.307Z,52.32
2016-06-07T03:58:20.310Z,52.12
2016-06-07T03:59:20.329Z,51.76
2016-06-07T04:00:20.332Z,52.22
2016-06-07T04:01:20.335Z,52.12
2016-06-07T04:02:20.353Z,52.12
2016-06-07T04:03:20.356Z,52.22
2016-06-07T04:04:20.358Z,51.84
2016-06-07T04:05:20.361Z,51.64
2016-06-07T04:06:20.223Z,52.12
2016-06-07T04:07:20.382Z,52.12
2016-06-07T04:08:20.400Z,52.12
2016-06-07T04:09:20.403Z,52.12
2016-06-07T04:10:20.406Z,52.25
2016-06-07T04:11:20.408Z,52.12
2016-06-07T04:12:20.427Z,52.22
2016-06-07T04:13:20.430Z,52.15
2016-06-07T04:14:20.433Z,51.84
2016-06-07T04:15:20.435Z,52.12
2016-06-07T04:16:20.452Z,52.12
2016-06-07T04:17:20.456Z,52.12
2016-06-07T04:18:20.459Z,52.12
2016-06-07T04:19:20.477Z,52.12
2016-06-07T04:20:20.479Z,52.32
2016-06-07T04:21:21.247Z,52.12
2016-06-07T04:22:20.500Z,51.64
2016-06-07T04:23:20.503Z,52.12
2016-06-07T04:24:20.506Z,52.03
2016-06-07T04:25:20.508Z,52.12
2016-06-07T04:26:20.526Z,52.32
2016-06-07T04:27:20.530Z,52.22
2016-06-07T04:28:20.532Z,52.12
2016-06-07T04:29:20.535Z,51.64
2016-06-07T04:30:20.553Z,51.64
2016-06-07T04:31:20.572Z,51.74
2016-06-07T04:32:20.559Z,51.84
2016-06-07T04:33:20.576Z,51.84
2016-06-07T04:34:20.580Z,51.96
2016-06-07T04:35:20.581Z,52.25
2016-06-07T04:36:20.585Z,51.47
2016-06-07T04:37:20.447Z,51.45
2016-06-07T04:38:20.606Z,52.12
2016-06-07T04:39:20.608Z,51.74
2016-06-07T04:40:20.628Z,51.45
2016-06-07T04:41:20.630Z,51.74
2016-06-07T04:42:20.633Z,51.74
2016-06-07T04:43:20.635Z,51.47
2016-06-07T04:44:20.654Z,51.54
2016-06-07T04:45:20.655Z,51.18
2016-06-07T04:46:20.658Z,51.37
2016-06-07T04:47:20.677Z,51.47
2016-06-07T04:48:20.680Z,51.57
2016-06-07T04:49:20.683Z,51.28
2016-06-07T04:50:20.685Z,51.67
2016-06-07T04:51:20.688Z,51.09
2016-06-07T04:52:21.174Z,51.09
2016-06-07T04:53:20.708Z,51.37
2016-06-07T04:54:20.711Z,51.18
2016-06-07T04:55:20.730Z,51.18
2016-06-07T04:56:20.732Z,51.28
2016-06-07T04:57:20.735Z,50.99
2016-06-07T04:58:20.738Z,50.89
2016-06-07T04:59:20.757Z,50.7
2016-06-07T05:00:20.759Z,50.41
2016-06-07T05:01:20.762Z,50.53
2016-06-07T05:02:20.779Z,50.62
2016-06-07T05:03:20.782Z,50.62
2016-06-07T05:04:20.785Z,50.14
2016-06-07T05:05:20.804Z,50.14
2016-06-07T05:06:20.807Z,50.24
2016-06-07T05:07:20.825Z,50.14
2016-06-07T05:08:20.828Z,50.34
2016-06-07T05:09:20.830Z,49.95
2016-06-07T05:10:20.833Z,50.04
2016-06-07T05:11:20.851Z,49.95
2016-06-07T05:12:20.853Z,49.56
2016-06-07T05:13:20.856Z,49.58
2016-06-07T05:14:20.875Z,49.97
2016-06-07T05:15:20.878Z,50.14
2016-06-07T05:16:20.895Z,50.14
2016-06-07T05:17:20.897Z,50.24
2016-06-07T05:18:20.901Z,50.14
2016-06-07T05:19:20.919Z,49.85
2016-06-07T05:20:20.922Z,49.85
2016-06-07T05:21:20.924Z,50.24
2016-06-07T05:22:20.944Z,49.56
2016-06-07T05:23:20.946Z,49.58
2016-06-07T05:24:20.964Z,49.68
2016-06-07T05:25:20.810Z,49.97
2016-06-07T05:26:20.969Z,49.97
2016-06-07T05:27:20.988Z,49.39
2016-06-07T05:28:20.991Z,49
2016-06-07T05:29:20.837Z,49.1
2016-06-07T05:30:21.011Z,48.8
2016-06-07T05:31:21.029Z,49.19
2016-06-07T05:32:21.032Z,48.8
2016-06-07T05:33:21.035Z,48.9
2016-06-07T05:34:20.882Z,49.49
2016-06-07T05:35:21.057Z,49.32
2016-06-07T05:36:21.059Z,48.44
2016-06-07T05:37:21.170Z,48.73
2016-06-07T05:38:21.080Z,48.83
2016-06-07T05:39:21.098Z,48.73
2016-06-07T05:40:21.101Z,48.54
2016-06-07T05:41:21.119Z,48.44
2016-06-07T05:42:20.997Z,49.12
2016-06-07T05:43:21.125Z,49.51
2016-06-07T05:44:21.143Z,49.41
2016-06-07T05:45:21.145Z,49
2016-06-07T05:46:21.008Z,49.39
2016-06-07T05:47:21.166Z,49.22
2016-06-07T05:48:21.169Z,48.83
2016-06-07T05:49:21.188Z,48.93
2016-06-07T05:50:21.190Z,49.39
2016-06-07T05:51:21.208Z,49.39
2016-06-07T05:52:21.352Z,49.51
2016-06-07T05:53:21.214Z,48.93
2016-06-07T05:54:21.233Z,49.41
2016-06-07T05:55:21.235Z,49.29
2016-06-07T05:56:21.253Z,49.1
2016-06-07T05:57:21.256Z,48.93
2016-06-07T05:58:21.259Z,49.02
2016-06-07T05:59:21.277Z,48.9
2016-06-07T06:00:21.295Z,49.19
2016-06-07T06:01:21.314Z,49.1
2016-06-07T06:02:21.301Z,49
2016-06-07T06:03:21.319Z,49.77
2016-06-07T06:04:21.321Z,48.8
2016-06-07T06:05:21.324Z,49
2016-06-07T06:06:21.343Z,49
2016-06-07T06:07:21.362Z,49
2016-06-07T06:08:21.192Z,49
2016-06-07T06:09:21.367Z,49.1
2016-06-07T06:10:21.370Z,48.8
2016-06-07T06:11:21.387Z,49.19
2016-06-07T06:12:21.390Z,49.29
2016-06-07T06:13:21.393Z,49
2016-06-07T06:14:21.411Z,48.9
2016-06-07T06:15:21.414Z,49
2016-06-07T06:16:21.431Z,49.29
2016-06-07T06:17:21.435Z,49.1
2016-06-07T06:18:21.437Z,49.39
2016-06-07T06:19:21.440Z,49.51
2016-06-07T06:20:21.458Z,49.32
2016-06-07T06:21:21.461Z,49.49
2016-06-07T06:22:21.480Z,49.41
2016-06-07T06:23:21.608Z,49.1
2016-06-07T06:24:21.500Z,49.58
2016-06-07T06:25:21.503Z,50.26
2016-06-07T06:26:21.506Z,50.94
2016-06-07T06:27:21.524Z,50.62
2016-06-07T06:28:21.527Z,49.75
2016-06-07T06:29:21.529Z,49.58
2016-06-07T06:30:21.595Z,49.97
2016-06-07T06:31:21.551Z,49.87
2016-06-07T06:32:21.553Z,49.29
2016-06-07T06:33:21.572Z,49.41
2016-06-07T06:34:21.418Z,48.64
2016-06-07T06:35:21.592Z,48.44
2016-06-07T06:36:21.642Z,48.83
2016-06-07T06:37:21.629Z,48.25
2016-06-07T06:38:21.616Z,48.25
2016-06-07T06:39:21.618Z,48.05
2016-06-07T06:40:21.637Z,47.2
2016-06-07T06:41:21.483Z,47.49
2016-06-07T06:42:21.659Z,47.2
2016-06-07T06:43:21.662Z,47.01
2016-06-07T06:44:21.679Z,47.2
2016-06-07T06:45:21.681Z,47.11
2016-06-07T06:46:21.685Z,47.01
2016-06-07T06:47:21.703Z,47.11
2016-06-07T06:48:21.705Z,46.45
2016-06-07T06:49:21.725Z,45.87
2016-06-07T06:50:21.727Z,46.45
2016-06-07T06:51:21.761Z,46.45
2016-06-07T06:52:21.607Z,45.97
2016-06-07T06:53:21.751Z,46.25
2016-06-07T06:54:21.769Z,46.06
2016-06-07T06:55:21.771Z,46.15
2016-06-07T06:56:21.790Z,46.25
2016-06-07T06:57:21.792Z,45.87
2016-06-07T06:58:21.811Z,45.57
2016-06-07T06:59:21.813Z,46.35
2016-06-07T07:00:21.674Z,45.5
2016-06-07T07:01:21.835Z,45.57
2016-06-07T07:02:21.853Z,45.48
2016-06-07T07:03:21.871Z,44.99
2016-06-07T07:04:21.874Z,44.51
2016-06-07T07:05:21.877Z,44.51
2016-06-07T07:06:21.895Z,44.21
2016-06-07T07:07:21.773Z,43.24
2016-06-07T07:08:21.915Z,42.95
2016-06-07T07:09:21.934Z,42.95
2016-06-07T07:10:21.937Z,42.66
2016-06-07T07:11:21.986Z,42.66
2016-06-07T07:12:21.973Z,42.76
2016-06-07T07:13:22.117Z,43.36
2016-06-07T07:14:21.979Z,42.58
2016-06-07T07:15:22.012Z,42.97
2016-06-07T07:16:22.031Z,42.87
2016-06-07T07:17:22.018Z,43.07
2016-06-07T07:18:22.036Z,43.07
2016-06-07T07:19:22.055Z,43.55
2016-06-07T07:20:22.057Z,43.85
2016-06-07T07:21:22.061Z,43.65
2016-06-07T07:22:23.531Z,44.04
2016-06-07T07:23:22.096Z,44.43
2016-06-07T07:24:22.100Z,42.68
2016-06-07T07:25:22.117Z,42.58
2016-06-07T07:26:22.120Z,41.22
2016-06-07T07:27:22.138Z,41.71
2016-06-07T07:28:22.157Z,42.97
2016-06-07T07:29:22.160Z,43.46
2016-06-07T07:30:22.178Z,44.04
2016-06-07T07:31:22.180Z,44.82
2016-06-07T07:32:22.215Z,44.99
2016-06-07T14:30:25.845Z,50.02
2016-06-07T14:31:25.864Z,50.21
2016-06-07T14:32:25.866Z,50.12
2016-06-07T14:33:25.869Z,50.43
2016-06-07T14:34:25.872Z,50.7
2016-06-07T14:35:25.874Z,51.28
2016-06-07T14:36:25.892Z,51.37
2016-06-07T14:37:25.895Z,51.47
2016-06-07T14:38:25.897Z,51.67
2016-06-07T14:39:25.916Z,51.18
2016-06-07T14:40:25.982Z,51.28
2016-06-07T14:41:25.922Z,51.57
2016-06-07T14:42:25.924Z,51.28
2016-06-07T14:43:25.943Z,50.7
2016-06-07T14:44:25.946Z,50.6
2016-06-07T14:45:25.948Z,50.41
2016-06-07T14:46:25.951Z,50.41
2016-06-07T14:47:26.016Z,50.12
2016-06-07T14:48:25.971Z,50.41
2016-06-07T14:49:25.974Z,50.41
2016-06-07T14:50:25.977Z,50.41
2016-06-07T14:51:25.979Z,50.21
2016-06-07T14:52:25.982Z,50.5
2016-06-07T14:53:26.001Z,49.82
2016-06-07T14:54:26.004Z,50.12
2016-06-07T14:55:26.006Z,49.92
2016-06-07T14:56:26.009Z,49.63
2016-06-07T14:57:26.012Z,49.82
2016-06-07T14:58:26.030Z,49.92
2016-06-07T14:59:26.033Z,49.63
2016-06-07T15:00:26.035Z,49.82
2016-06-07T15:01:26.101Z,49.24
2016-06-07T15:02:26.041Z,49.92
2016-06-07T15:03:26.059Z,48.95
2016-06-07T15:04:26.062Z,49.73
2016-06-07T15:05:26.080Z,48.76
2016-06-07T15:06:26.067Z,49.24
2016-06-07T15:07:26.086Z,49.92
2016-06-07T15:08:26.088Z,49.05
2016-06-07T15:09:26.981Z,49.05
2016-06-07T15:10:26.094Z,48.95
2016-06-07T15:11:26.097Z,49.05
2016-06-07T15:12:26.114Z,49.15
2016-06-07T15:13:26.132Z,49.15
2016-06-07T15:14:26.120Z,49.34
2016-06-07T15:15:26.122Z,49.34
2016-06-07T15:16:26.140Z,49.24
2016-06-07T15:17:26.143Z,48.66
2016-06-07T15:18:26.146Z,49.24
2016-06-07T15:19:26.149Z,49.24
2016-06-07T15:20:26.167Z,48.37
2016-06-07T15:21:26.170Z,49.05
2016-06-07T15:22:26.173Z,49.15
2016-06-07T15:23:26.191Z,48.95
2016-06-07T15:24:26.194Z,48.74
2016-06-07T15:25:26.195Z,48.57
2016-06-07T15:26:26.199Z,48.76
2016-06-07T15:27:26.201Z,49.32
2016-06-07T15:28:26.204Z,48.54
2016-06-07T15:29:26.238Z,48.74
2016-06-07T15:30:26.225Z,48.44
2016-06-07T15:31:26.228Z,48.25
2016-06-07T15:32:26.231Z,49.32
2016-06-07T15:33:26.233Z,48.71
2016-06-07T15:34:26.236Z,49.51
2016-06-07T15:35:26.239Z,48.93
2016-06-07T15:36:26.273Z,49.22
2016-06-07T15:37:26.260Z,49.32
2016-06-07T15:38:26.263Z,48.66
2016-06-07T15:39:26.703Z,48.06
2016-06-07T15:40:26.269Z,48.57
2016-06-07T15:41:26.286Z,48.15
2016-06-07T15:42:26.289Z,48.64
2016-06-07T15:43:26.291Z,48.83
2016-06-07T15:44:26.294Z,49.41
2016-06-07T15:45:26.297Z,48.93
2016-06-07T15:46:26.299Z,49.7
2016-06-07T15:47:26.302Z,50.29
2016-06-07T15:48:26.320Z,49.12
2016-06-07T15:49:26.324Z,49.61
2016-06-07T15:50:26.342Z,50.77
2016-06-07T15:51:26.329Z,50.29
2016-06-07T15:52:26.332Z,49.9
2016-06-07T15:53:26.349Z,50.29
2016-06-07T15:54:26.368Z,49.9
2016-06-07T15:55:26.354Z,49.8
2016-06-07T15:56:26.374Z,50.87
2016-06-07T15:57:26.376Z,51.16
2016-06-07T15:58:26.363Z,51.25
2016-06-07T15:59:26.365Z,52.22
2016-06-07T16:00:26.384Z,51.06
2016-06-07T16:01:26.387Z,51.54
2016-06-07T16:02:26.390Z,51.64
2016-06-07T16:03:26.455Z,51.54
2016-06-07T16:04:26.411Z,51.45
2016-06-07T16:05:26.414Z,51.23
2016-06-07T16:06:26.416Z,51.54
2016-06-07T16:07:26.419Z,51.52
2016-06-07T16:08:26.422Z,51.72
2016-06-07T16:09:27.174Z,52
2016-06-07T16:10:26.427Z,51.9
2016-06-07T16:11:26.429Z,52
2016-06-07T16:12:26.447Z,52.2
2016-06-07T16:13:26.450Z,52.68
2016-06-07T16:14:26.453Z,53.45
2016-06-07T16:15:26.455Z,52.2
2016-06-07T16:16:26.458Z,52.58
2016-06-07T16:17:26.461Z,52.29
2016-06-07T16:18:26.324Z,52.97
2016-06-07T16:19:26.482Z,52.78
2016-06-07T16:20:26.485Z,52.68
2016-06-07T16:21:26.488Z,52.39
2016-06-07T16:22:26.490Z,52.29
2016-06-07T16:23:26.493Z,51.9
2016-06-07T16:24:26.917Z,51.32
2016-06-07T16:25:26.357Z,51.45
2016-06-07T16:26:26.517Z,52.22
2016-06-07T16:27:26.519Z,52.03
2016-06-07T16:28:26.522Z,51.93
2016-06-07T16:29:26.541Z,52.12
2016-06-07T16:30:26.528Z,51.93
2016-06-07T16:31:26.545Z,52.58
2016-06-07T16:32:26.548Z,52.39
2016-06-07T16:33:26.551Z,51.64
2016-06-07T16:34:26.553Z,52.2
2016-06-07T16:35:26.573Z,52.29
2016-06-07T16:36:26.575Z,52.49
2016-06-07T16:37:26.562Z,52.49
2016-06-07T16:38:26.565Z,52.29
2016-06-07T16:39:27.255Z,52.29
2016-06-07T16:40:26.695Z,52.2
2016-06-07T16:41:26.432Z,51.72
2016-06-07T16:42:26.591Z,51.72
